Time;durP1;ratioP1;P1;durP2;ratioP2;P2;SDS_P1;SDS_P2;PMS_P1;PMS_P2;Temp;Humidity;BMP_temperature;BMP_pressure;BME280_temperature;BME280_humidity;BME280_pressure;Samples;Min_cycle;Max_cycle;Signal;HPM_P1;HPM_P2
2023/04/14 00:02:10;;;;;;;6.63;4.00;;;11.30;66.40;;;;;;5048575;28;20445;-71
2023/04/14 00:04:37;;;;;;;7.60;3.50;;;11.30;66.50;;;;;;5034853;28;20484;-70
2023/04/14 00:07:04;;;;;;;6.47;3.47;;;11.30;66.40;;;;;;5049088;28;20444;-71
2023/04/14 00:09:32;;;;;;;4.73;3.10;;;11.30;66.40;;;;;;5055228;28;20871;-72
2023/04/14 00:12:00;;;;;;;6.60;3.77;;;11.30;66.50;;;;;;5038841;28;21034;-71
2023/04/14 00:14:26;;;;;;;9.30;3.70;;;11.30;66.40;;;;;;5054925;28;20447;-71
2023/04/14 00:16:53;;;;;;;9.40;3.50;;;11.30;66.40;;;;;;5052310;28;20468;-71
2023/04/14 00:19:20;;;;;;;7.67;3.17;;;11.30;66.60;;;;;;5044521;28;20486;-72
2023/04/14 00:21:47;;;;;;;8.47;3.80;;;11.30;66.50;;;;;;5054018;28;20927;-71
2023/04/14 00:24:14;;;;;;;6.27;3.53;;;11.30;66.10;;;;;;5038211;28;20998;-72
2023/04/14 00:26:42;;;;;;;5.47;3.13;;;11.30;66.30;;;;;;5052474;28;20981;-72
2023/04/14 00:29:09;;;;;;;4.67;3.20;;;11.30;66.10;;;;;;5046525;28;20445;-72
2023/04/14 00:31:36;;;;;;;9.10;3.70;;;11.30;65.90;;;;;;5044370;28;20515;-72
2023/04/14 00:34:03;;;;;;;8.50;3.73;;;11.30;65.90;;;;;;5041469;28;20455;-70
2023/04/14 00:36:30;;;;;;;4.43;3.07;;;11.30;65.90;;;;;;5050893;28;20492;-71
2023/04/14 00:38:56;;;;;;;6.90;3.33;;;11.30;65.70;;;;;;5048655;28;20453;-71
2023/04/14 00:41:24;;;;;;;5.60;3.07;;;11.30;65.50;;;;;;5035716;28;20449;-71
2023/04/14 00:43:54;;;;;;;11.60;3.30;;;11.20;65.60;;;;;;5043669;28;20464;-71
2023/04/14 00:46:22;;;;;;;9.60;3.30;;;11.20;65.70;;;;;;5039415;28;20487;-71
2023/04/14 00:48:49;;;;;;;7.23;2.90;;;11.30;65.70;;;;;;5048778;28;20945;-72
2023/04/14 00:51:16;;;;;;;5.93;2.90;;;11.30;65.70;;;;;;5038852;28;20540;-71
2023/04/14 00:53:43;;;;;;;6.77;3.17;;;11.20;65.60;;;;;;5052888;28;20983;-72
2023/04/14 00:56:10;;;;;;;8.83;2.87;;;11.30;65.50;;;;;;5041522;28;20477;-71
2023/04/14 00:58:37;;;;;;;5.43;3.03;;;11.20;65.50;;;;;;5056953;28;20479;-72
2023/04/14 01:01:05;;;;;;;5.87;2.93;;;11.20;65.30;;;;;;5055440;28;21090;-71
2023/04/14 01:03:32;;;;;;;7.07;2.87;;;11.20;65.10;;;;;;5064696;28;20517;-71
2023/04/14 01:05:59;;;;;;;5.27;2.97;;;11.20;65.20;;;;;;5067086;28;20540;-71
2023/04/14 01:08:27;;;;;;;6.30;3.13;;;11.20;65.00;;;;;;5058016;28;20476;-71
2023/04/14 01:11:04;;;;;;;10.00;3.23;;;11.20;65.20;;;;;;5039324;28;20583;-71
2023/04/14 01:13:40;;;;;;;5.70;2.77;;;11.20;65.40;;;;;;5041993;28;20468;-71
2023/04/14 01:16:16;;;;;;;6.97;2.60;;;11.20;65.30;;;;;;5050073;28;20451;-71
2023/04/14 01:18:53;;;;;;;6.13;2.90;;;11.10;65.00;;;;;;5044462;28;20961;-72
2023/04/14 01:21:23;;;;;;;7.03;3.10;;;11.00;65.00;;;;;;5044639;28;20492;-71
2023/04/14 01:24:04;;;;;;;5.83;3.03;;;11.00;64.80;;;;;;5047937;28;20960;-70
2023/04/14 01:26:33;;;;;;;6.20;2.53;;;11.00;65.00;;;;;;5053012;28;20478;-71
2023/04/14 01:29:33;;;;;;;3.90;2.97;;;11.00;65.20;;;;;;5052594;28;21010;-71
2023/04/14 01:32:04;;;;;;;5.87;3.20;;;10.90;65.10;;;;;;5040200;28;20454;-71
2023/04/14 01:34:36;;;;;;;4.33;3.23;;;10.80;65.00;;;;;;5039186;28;21000;-71
2023/04/14 01:37:06;;;;;;;5.47;3.03;;;10.80;65.10;;;;;;5037270;28;20964;-71
2023/04/14 01:39:37;;;;;;;7.90;2.83;;;10.70;65.30;;;;;;5033499;28;20838;-71
2023/04/14 01:42:07;;;;;;;6.03;3.20;;;10.70;65.40;;;;;;5049841;28;20480;-70
2023/04/14 01:44:35;;;;;;;8.00;2.90;;;10.60;65.40;;;;;;5035418;28;20548;-71
2023/04/14 01:47:07;;;;;;;7.80;2.97;;;10.60;65.70;;;;;;5031409;28;20464;-70
2023/04/14 01:49:36;;;;;;;7.17;3.53;;;10.60;65.50;;;;;;5033747;28;20448;-71
2023/04/14 01:52:05;;;;;;;5.00;2.70;;;10.50;65.50;;;;;;5033473;28;20453;-72
2023/04/14 01:54:34;;;;;;;6.17;2.83;;;10.60;65.30;;;;;;5046393;28;20478;-71
2023/04/14 01:57:04;;;;;;;7.50;3.80;;;10.60;65.30;;;;;;5050749;28;20812;-71
2023/04/14 01:59:33;;;;;;;7.40;2.67;;;10.50;65.10;;;;;;5041055;28;20957;-71
2023/04/14 02:02:02;;;;;;;6.03;2.77;;;10.50;65.10;;;;;;5047767;28;20578;-71
2023/04/14 02:04:32;;;;;;;5.37;2.57;;;10.40;65.00;;;;;;5052740;28;20448;-71
2023/04/14 02:07:01;;;;;;;5.97;2.73;;;10.40;65.40;;;;;;5039939;28;20447;-72
2023/04/14 02:09:31;;;;;;;4.77;2.80;;;10.30;65.40;;;;;;5051681;28;20473;-71
2023/04/14 02:11:59;;;;;;;4.13;2.77;;;10.30;66.30;;;;;;5052017;28;20444;-71
2023/04/14 02:14:27;;;;;;;5.23;2.93;;;10.20;65.60;;;;;;5050095;28;20452;-71
2023/04/14 02:16:56;;;;;;;5.00;2.73;;;10.20;65.70;;;;;;5049089;28;20477;-71
2023/04/14 02:19:24;;;;;;;4.70;2.83;;;10.10;65.60;;;;;;5034607;28;20516;-70
2023/04/14 02:21:54;;;;;;;6.00;3.00;;;10.10;66.00;;;;;;5039939;28;20463;-71
2023/04/14 02:24:22;;;;;;;5.37;2.60;;;10.10;66.30;;;;;;5040371;28;20490;-71
2023/04/14 02:27:02;;;;;;;6.47;2.90;;;10.10;66.30;;;;;;5047036;28;20579;-70
2023/04/14 02:29:31;;;;;;;5.73;2.50;;;10.10;66.30;;;;;;5032486;28;20568;-71
2023/04/14 02:32:02;;;;;;;6.77;2.57;;;10.10;66.10;;;;;;5044031;28;20967;-70
2023/04/14 02:34:34;;;;;;;6.03;3.47;;;10.10;66.20;;;;;;5039774;28;20451;-70
2023/04/14 02:37:08;;;;;;;4.33;2.53;;;10.10;66.30;;;;;;5047534;28;20473;-71
2023/04/14 02:39:40;;;;;;;7.93;3.10;;;10.00;66.50;;;;;;5032986;28;20536;-71
2023/04/14 02:42:13;;;;;;;6.93;3.07;;;10.10;66.70;;;;;;5036716;28;20456;-72
2023/04/14 02:44:51;;;;;;;5.50;2.80;;;10.10;66.70;;;;;;5033949;28;20678;-71
2023/04/14 02:47:25;;;;;;;6.70;2.70;;;10.10;67.00;;;;;;5045828;28;20456;-71
2023/04/14 02:49:53;;;;;;;6.97;3.10;;;10.10;67.00;;;;;;5037309;28;20450;-70
2023/04/14 02:52:24;;;;;;;4.80;2.83;;;10.10;67.10;;;;;;5046200;28;20448;-70
2023/04/14 02:54:53;;;;;;;3.90;2.53;;;10.00;67.20;;;;;;5049588;28;20465;-70
2023/04/14 02:57:21;;;;;;;7.27;2.90;;;10.00;67.60;;;;;;5043492;28;20480;-71
2023/04/14 02:59:50;;;;;;;7.07;2.97;;;10.00;67.60;;;;;;5032285;28;20453;-69
2023/04/14 03:02:18;;;;;;;8.30;3.63;;;10.00;67.90;;;;;;5043272;28;20554;-71
2023/04/14 03:04:48;;;;;;;6.83;2.77;;;10.00;68.00;;;;;;5043916;28;20483;-70
2023/04/14 03:07:17;;;;;;;6.60;3.40;;;9.90;69.30;;;;;;5051782;28;20967;-73
2023/04/14 03:09:48;;;;;;;7.47;3.10;;;9.90;69.40;;;;;;5056716;28;20539;-71
2023/04/14 03:12:16;;;;;;;5.90;3.13;;;9.90;69.50;;;;;;5052991;28;20484;-71
2023/04/14 03:14:44;;;;;;;6.23;3.23;;;9.90;69.50;;;;;;5051524;28;20460;-71
2023/04/14 03:17:13;;;;;;;4.97;2.97;;;9.90;70.10;;;;;;5059890;28;20524;-70
2023/04/14 03:19:42;;;;;;;9.23;3.10;;;9.90;69.50;;;;;;5049074;28;20481;-72
2023/04/14 03:22:10;;;;;;;7.47;2.70;;;9.90;69.60;;;;;;5040974;28;20450;-71
2023/04/14 03:24:38;;;;;;;4.33;2.47;;;9.90;69.70;;;;;;5050052;28;20551;-71
2023/04/14 03:27:10;;;;;;;6.63;2.60;;;9.90;69.50;;;;;;5048644;28;20560;-70
2023/04/14 03:29:41;;;;;;;6.57;2.60;;;10.00;68.10;;;;;;5049439;28;20563;-70
2023/04/14 03:32:09;;;;;;;4.87;2.77;;;10.00;68.00;;;;;;5047841;28;20544;-70
2023/04/14 03:34:40;;;;;;;7.13;3.17;;;10.10;67.90;;;;;;5050983;28;20918;-69
2023/04/14 03:37:08;;;;;;;6.23;3.00;;;10.10;67.90;;;;;;5043000;28;20547;-71
2023/04/14 03:39:38;;;;;;;5.40;2.47;;;10.10;67.70;;;;;;5033504;28;20455;-72
2023/04/14 03:42:08;;;;;;;5.60;2.60;;;10.10;67.60;;;;;;5040660;28;20915;-70
2023/04/14 03:44:36;;;;;;;6.83;2.63;;;10.10;67.40;;;;;;5032877;28;20465;-71
2023/04/14 03:47:04;;;;;;;6.77;2.67;;;10.10;67.40;;;;;;5031651;28;20885;-71
2023/04/14 03:49:32;;;;;;;3.77;2.13;;;10.10;67.30;;;;;;5031736;28;20478;-72
2023/04/14 03:52:03;;;;;;;6.20;2.33;;;10.10;67.20;;;;;;5046824;28;20451;-71
2023/04/14 03:54:33;;;;;;;5.20;2.40;;;10.10;67.10;;;;;;5050769;28;21189;-71
2023/04/14 03:57:03;;;;;;;6.50;2.70;;;10.10;67.00;;;;;;5044130;28;20477;-72
2023/04/14 03:59:33;;;;;;;6.20;2.50;;;10.20;66.80;;;;;;5042273;28;20670;-70
2023/04/14 04:02:01;;;;;;;5.00;2.40;;;10.20;66.60;;;;;;5050370;28;20490;-72
2023/04/14 04:04:29;;;;;;;5.90;2.50;;;10.20;66.40;;;;;;5046487;28;20637;-71
2023/04/14 04:06:57;;;;;;;3.10;2.60;;;10.20;66.40;;;;;;5039797;28;20506;-70
2023/04/14 04:09:25;;;;;;;4.67;2.60;;;10.20;66.20;;;;;;5049160;28;20807;-71
2023/04/14 04:11:52;;;;;;;4.00;2.50;;;10.20;65.80;;;;;;5050320;28;20464;-71
2023/04/14 04:14:22;;;;;;;4.17;2.23;;;10.20;66.00;;;;;;5051115;28;20978;-71
2023/04/14 04:16:51;;;;;;;4.97;2.40;;;10.20;66.10;;;;;;5040288;28;20453;-71
2023/04/14 04:19:21;;;;;;;3.73;2.30;;;10.20;66.20;;;;;;5041842;28;20480;-71
2023/04/14 04:21:49;;;;;;;6.27;2.70;;;10.20;66.20;;;;;;5039257;28;20823;-71
2023/04/14 04:24:18;;;;;;;3.93;2.37;;;10.20;66.10;;;;;;5034868;28;20451;-70
2023/04/14 04:26:45;;;;;;;5.83;2.50;;;10.20;66.10;;;;;;5049820;28;20476;-70
2023/04/14 04:29:12;;;;;;;4.63;2.57;;;10.20;66.30;;;;;;5035104;28;20981;-71
2023/04/14 04:31:39;;;;;;;4.40;2.70;;;10.20;66.40;;;;;;5035821;28;20448;-70
2023/04/14 04:34:08;;;;;;;7.90;2.93;;;10.20;66.20;;;;;;5039014;28;20814;-71
2023/04/14 04:36:36;;;;;;;8.90;3.37;;;10.20;66.20;;;;;;5053988;28;20456;-71
2023/04/14 04:39:03;;;;;;;4.87;2.77;;;10.30;66.20;;;;;;5048342;28;20471;-71
2023/04/14 04:41:30;;;;;;;6.20;2.87;;;10.20;66.20;;;;;;5048134;28;20991;-71
2023/04/14 04:43:57;;;;;;;7.60;2.47;;;10.20;66.30;;;;;;5053638;28;20460;-72
2023/04/14 04:46:44;;;;;;;7.20;2.67;;;10.30;66.40;;;;;;5051928;28;20877;-71
2023/04/14 04:49:12;;;;;;;7.20;2.87;;;10.20;66.40;;;;;;5046589;28;20817;-71
2023/04/14 04:51:39;;;;;;;5.40;2.93;;;10.20;66.60;;;;;;5042331;28;20868;-72
2023/04/14 04:54:06;;;;;;;6.53;2.80;;;10.10;66.90;;;;;;5048163;28;20440;-71
2023/04/14 04:56:33;;;;;;;8.07;3.10;;;10.10;67.30;;;;;;5052058;28;20479;-71
2023/04/14 04:59:01;;;;;;;6.17;2.70;;;10.10;67.30;;;;;;5051902;28;20804;-72
2023/04/14 05:01:28;;;;;;;7.50;2.70;;;10.00;67.40;;;;;;5041792;28;20485;-71
2023/04/14 05:03:54;;;;;;;6.43;2.73;;;9.90;68.90;;;;;;5038424;28;20445;-75
2023/04/14 05:06:23;;;;;;;6.00;2.53;;;9.90;69.90;;;;;;5051121;28;20932;-73
2023/04/14 05:08:51;;;;;;;5.17;2.80;;;9.90;69.20;;;;;;5046582;28;20457;-72
2023/04/14 05:11:18;;;;;;;5.43;2.90;;;9.90;69.00;;;;;;5051078;28;20449;-73
2023/04/14 05:13:45;;;;;;;6.33;2.90;;;9.90;68.90;;;;;;5053304;28;20815;-72
2023/04/14 05:16:13;;;;;;;4.43;2.53;;;10.00;67.80;;;;;;5053644;28;20448;-73
2023/04/14 05:18:41;;;;;;;4.70;2.70;;;10.00;67.80;;;;;;5047780;28;20446;-73
2023/04/14 05:21:09;;;;;;;3.93;2.30;;;10.10;67.70;;;;;;5042241;28;20497;-73
2023/04/14 05:23:39;;;;;;;6.93;3.10;;;10.10;67.60;;;;;;5052406;28;20987;-73
2023/04/14 05:26:06;;;;;;;7.03;2.77;;;10.10;67.40;;;;;;5053724;28;20961;-73
2023/04/14 05:28:33;;;;;;;6.40;2.43;;;10.10;67.60;;;;;;5040406;28;20881;-71
2023/04/14 05:31:00;;;;;;;5.03;2.70;;;10.20;67.70;;;;;;5046097;28;20812;-71
2023/04/14 05:33:27;;;;;;;6.43;2.73;;;10.20;68.40;;;;;;5052709;28;20527;-71
2023/04/14 05:35:54;;;;;;;5.63;2.87;;;10.20;67.70;;;;;;5033423;28;20455;-72
2023/04/14 05:38:21;;;;;;;10.10;2.47;;;10.30;67.70;;;;;;5033366;28;20453;-71
2023/04/14 05:40:49;;;;;;;8.23;3.10;;;10.30;67.80;;;;;;5040715;28;20481;-73
2023/04/14 05:43:17;;;;;;;7.10;2.50;;;10.30;67.90;;;;;;5025530;28;20453;-71
2023/04/14 05:45:45;;;;;;;6.80;2.93;;;10.40;68.20;;;;;;5048677;28;21017;-71
2023/04/14 05:48:13;;;;;;;6.07;2.80;;;10.40;68.20;;;;;;5037957;28;20540;-71
2023/04/14 05:50:40;;;;;;;5.93;2.43;;;10.40;68.20;;;;;;5048384;28;20486;-71
2023/04/14 05:53:07;;;;;;;5.50;2.80;;;10.40;68.20;;;;;;5033449;28;20791;-71
2023/04/14 05:55:34;;;;;;;7.37;2.77;;;10.50;68.00;;;;;;5033191;28;20461;-74
2023/04/14 05:58:02;;;;;;;6.03;2.70;;;10.50;67.90;;;;;;5043744;28;20476;-72
2023/04/14 06:00:29;;;;;;;7.47;2.93;;;10.50;67.70;;;;;;5040123;28;20452;-71
2023/04/14 06:02:56;;;;;;;5.37;2.73;;;10.50;67.70;;;;;;5032657;28;20453;-71
2023/04/14 06:05:24;;;;;;;5.67;2.63;;;10.60;67.80;;;;;;5032479;28;20824;-70
2023/04/14 06:07:50;;;;;;;8.03;2.77;;;10.60;67.60;;;;;;5032291;28;21058;-69
2023/04/14 06:10:18;;;;;;;6.77;3.00;;;10.50;67.70;;;;;;5035383;28;20944;-70
2023/04/14 06:12:44;;;;;;;6.10;2.50;;;10.60;68.00;;;;;;5044956;28;20574;-71
2023/04/14 06:15:13;;;;;;;4.83;2.40;;;10.50;68.50;;;;;;5033433;28;20544;-70
2023/04/14 06:17:40;;;;;;;5.57;3.03;;;10.40;68.20;;;;;;5047036;28;20482;-71
2023/04/14 06:20:08;;;;;;;6.63;2.67;;;10.40;68.70;;;;;;5044397;28;20459;-71
2023/04/14 06:22:35;;;;;;;5.63;2.87;;;10.40;68.70;;;;;;5041923;28;20558;-71
2023/04/14 06:25:02;;;;;;;7.97;3.00;;;10.50;68.30;;;;;;5041735;28;20554;-71
2023/04/14 06:27:32;;;;;;;7.87;2.73;;;10.50;68.50;;;;;;5049421;28;20968;-70
2023/04/14 06:30:00;;;;;;;5.00;2.70;;;10.70;68.30;;;;;;5046198;28;20547;-71
2023/04/14 06:32:28;;;;;;;7.47;3.23;;;10.60;67.90;;;;;;5042015;28;20449;-71
2023/04/14 06:34:56;;;;;;;5.47;2.53;;;10.60;68.20;;;;;;5047931;28;20547;-70
2023/04/14 06:37:22;;;;;;;6.13;2.37;;;10.70;68.50;;;;;;5051134;28;20480;-71
2023/04/14 06:39:49;;;;;;;5.70;2.63;;;10.80;68.20;;;;;;5041102;28;20465;-71
2023/04/14 06:42:16;;;;;;;4.43;2.90;;;10.90;68.30;;;;;;5035019;28;20488;-71
2023/04/14 06:44:43;;;;;;;7.37;3.30;;;11.00;68.10;;;;;;5036052;28;20556;-71
2023/04/14 06:47:10;;;;;;;6.07;3.30;;;11.00;67.80;;;;;;5037127;28;20527;-71
2023/04/14 06:49:38;;;;;;;7.43;3.33;;;11.20;68.00;;;;;;5044721;28;20456;-71
2023/04/14 06:52:06;;;;;;;7.13;2.80;;;11.30;67.60;;;;;;5036352;28;20450;-71
2023/04/14 06:54:33;;;;;;;6.43;2.80;;;11.40;67.00;;;;;;5031012;28;20445;-71
2023/04/14 06:57:01;;;;;;;4.67;2.73;;;11.40;67.00;;;;;;5050776;28;20480;-71
2023/04/14 06:59:28;;;;;;;6.40;2.60;;;11.50;67.10;;;;;;5050396;28;20467;-71
2023/04/14 07:01:57;;;;;;;5.90;2.70;;;11.50;67.10;;;;;;5052071;28;21106;-71
2023/04/14 07:04:24;;;;;;;7.17;2.80;;;11.50;67.10;;;;;;5054094;28;20456;-70
2023/04/14 07:06:53;;;;;;;7.67;3.07;;;11.70;67.10;;;;;;5002246;28;20444;-71
2023/04/14 07:09:20;;;;;;;7.20;2.97;;;11.80;66.70;;;;;;5041806;28;20556;-70
2023/04/14 07:11:47;;;;;;;6.23;2.77;;;11.90;66.10;;;;;;5029552;28;20503;-71
2023/04/14 07:14:14;;;;;;;5.67;2.60;;;11.80;66.20;;;;;;5030165;28;20552;-70
2023/04/14 07:16:41;;;;;;;9.13;3.10;;;11.80;66.00;;;;;;5042735;28;20533;-71
2023/04/14 07:19:08;;;;;;;5.07;2.80;;;11.80;65.80;;;;;;5045502;28;20544;-71
2023/04/14 07:21:36;;;;;;;6.70;3.07;;;11.80;65.80;;;;;;4996494;28;20523;-73
2023/04/14 07:24:05;;;;;;;7.23;2.90;;;11.70;65.40;;;;;;5059223;28;20685;-71
2023/04/14 07:26:31;;;;;;;6.73;2.90;;;11.70;65.40;;;;;;5059920;28;20504;-71
2023/04/14 07:28:58;;;;;;;4.47;2.40;;;11.80;65.30;;;;;;5052737;28;20491;-71
2023/04/14 07:31:25;;;;;;;5.50;3.13;;;12.00;65.70;;;;;;5050351;28;20535;-71
2023/04/14 07:33:52;;;;;;;7.47;3.97;;;12.10;65.00;;;;;;5051450;28;20450;-71
2023/04/14 07:36:19;;;;;;;6.87;3.03;;;12.20;63.80;;;;;;5048779;28;20472;-70
2023/04/14 07:38:46;;;;;;;5.50;2.60;;;12.20;63.20;;;;;;5047714;28;20449;-71
2023/04/14 07:41:14;;;;;;;5.83;2.87;;;12.20;63.30;;;;;;5028225;28;20452;-70
2023/04/14 07:43:42;;;;;;;4.57;2.63;;;12.10;63.00;;;;;;5028582;28;20471;-71
2023/04/14 07:46:08;;;;;;;3.87;2.70;;;12.10;63.30;;;;;;5029210;28;20464;-72
2023/04/14 07:48:37;;;;;;;6.60;2.67;;;12.10;63.30;;;;;;5029357;28;20546;-71
2023/04/14 07:51:06;;;;;;;6.53;2.43;;;12.20;63.10;;;;;;4994769;28;20481;-71
2023/04/14 07:53:39;;;;;;;7.97;2.77;;;12.20;63.00;;;;;;5045010;28;20452;-71
2023/04/14 07:56:06;;;;;;;4.77;2.87;;;12.30;63.00;;;;;;5051931;28;20475;-72
2023/04/14 07:58:34;;;;;;;5.23;2.63;;;12.40;62.50;;;;;;5051063;28;20535;-71
2023/04/14 08:01:01;;;;;;;8.27;2.83;;;12.60;62.70;;;;;;5051130;28;21094;-71
2023/04/14 08:03:28;;;;;;;6.87;2.87;;;12.60;62.20;;;;;;5051902;28;20480;-71
2023/04/14 08:05:55;;;;;;;5.00;2.77;;;12.80;62.40;;;;;;5052977;28;20539;-70
2023/04/14 08:08:22;;;;;;;5.27;2.40;;;12.90;61.50;;;;;;5053031;28;20450;-71
2023/04/14 08:10:49;;;;;;;5.70;2.50;;;13.00;60.40;;;;;;5043777;28;20472;-71
2023/04/14 08:13:16;;;;;;;4.67;2.30;;;12.90;60.10;;;;;;5053819;28;20435;-70
2023/04/14 08:15:44;;;;;;;5.27;2.30;;;13.00;60.50;;;;;;5053398;28;20539;-70
2023/04/14 08:18:11;;;;;;;5.30;2.33;;;13.10;59.10;;;;;;5052268;28;21003;-70
2023/04/14 08:20:38;;;;;;;4.03;2.17;;;13.20;59.10;;;;;;5045490;28;20448;-71
2023/04/14 08:23:05;;;;;;;4.30;2.53;;;13.20;59.10;;;;;;5053839;28;20583;-72
2023/04/14 08:25:32;;;;;;;4.27;2.30;;;13.40;59.60;;;;;;5053975;28;20494;-71
2023/04/14 08:27:59;;;;;;;5.90;2.30;;;13.60;59.10;;;;;;5053427;28;20505;-71
2023/04/14 08:30:26;;;;;;;5.67;2.37;;;13.80;59.60;;;;;;5050182;28;20559;-71
2023/04/14 08:32:54;;;;;;;5.60;2.47;;;13.90;58.90;;;;;;5047680;28;20444;-71
2023/04/14 08:35:24;;;;;;;6.80;2.30;;;14.00;58.30;;;;;;5052534;28;20466;-70
2023/04/14 08:37:51;;;;;;;5.60;2.47;;;14.00;57.60;;;;;;5051621;28;20449;-72
2023/04/14 08:40:19;;;;;;;5.63;2.37;;;14.00;58.40;;;;;;5040133;28;20805;-71
2023/04/14 08:42:46;;;;;;;6.00;2.70;;;14.20;58.50;;;;;;5033180;28;20956;-70
2023/04/14 08:45:13;;;;;;;5.63;2.90;;;14.30;57.80;;;;;;5047511;28;20474;-71
2023/04/14 08:47:42;;;;;;;3.87;2.10;;;14.40;57.70;;;;;;5052028;28;21006;-71
2023/04/14 08:50:15;;;;;;;4.77;2.40;;;14.40;56.20;;;;;;5043659;28;20486;-72
2023/04/14 08:52:43;;;;;;;5.40;2.63;;;14.50;57.20;;;;;;5035344;28;20532;-71
2023/04/14 08:55:11;;;;;;;5.60;2.77;;;14.60;57.00;;;;;;5045710;28;21066;-71
2023/04/14 08:57:38;;;;;;;5.77;2.63;;;14.80;56.50;;;;;;5057187;28;20448;-71
2023/04/14 09:00:07;;;;;;;6.87;2.67;;;14.80;56.20;;;;;;5050438;28;20456;-71
2023/04/14 09:02:35;;;;;;;5.30;2.23;;;14.90;56.20;;;;;;5033671;28;20485;-71
2023/04/14 09:05:02;;;;;;;4.97;1.93;;;15.00;56.00;;;;;;5037168;28;20550;-71
2023/04/14 09:07:32;;;;;;;6.23;2.20;;;15.00;55.80;;;;;;5032225;28;20479;-71
2023/04/14 09:09:59;;;;;;;5.37;1.80;;;15.10;54.80;;;;;;5036874;28;20473;-71
2023/04/14 09:12:27;;;;;;;7.03;2.47;;;15.20;55.00;;;;;;5047473;28;20453;-71
2023/04/14 09:14:55;;;;;;;5.07;1.97;;;15.30;55.10;;;;;;5041380;28;20473;-71
2023/04/14 09:17:22;;;;;;;6.47;2.67;;;15.40;54.70;;;;;;5031926;28;20453;-71
2023/04/14 09:19:49;;;;;;;5.67;1.90;;;15.50;54.40;;;;;;5043272;28;20456;-71
2023/04/14 09:22:16;;;;;;;6.33;2.33;;;15.60;53.00;;;;;;5051776;28;20480;-71
2023/04/14 09:24:46;;;;;;;4.67;2.03;;;15.60;52.90;;;;;;5051471;28;20467;-71
2023/04/14 09:27:13;;;;;;;4.17;2.67;;;15.70;52.80;;;;;;5051581;28;20462;-71
2023/04/14 09:29:40;;;;;;;4.50;2.00;;;15.80;53.10;;;;;;5043989;28;20530;-72
2023/04/14 09:32:10;;;;;;;4.97;2.67;;;16.00;52.80;;;;;;5031787;28;20481;-72
2023/04/14 09:34:48;;;;;;;3.70;2.13;;;16.10;52.90;;;;;;5040249;28;20457;-71
2023/04/14 09:37:16;;;;;;;5.70;2.20;;;16.10;51.90;;;;;;5038452;28;20485;-71
2023/04/14 09:39:49;;;;;;;5.70;1.90;;;16.00;50.30;;;;;;5033124;28;21019;-72
2023/04/14 09:42:17;;;;;;;3.47;1.70;;;16.00;50.10;;;;;;5031741;28;20485;-72
2023/04/14 09:45:03;;;;;;;4.67;2.30;;;16.30;51.20;;;;;;5031699;28;20552;-71
2023/04/14 09:47:31;;;;;;;4.57;2.13;;;16.00;48.80;;;;;;5041335;28;20527;-72
2023/04/14 09:50:02;;;;;;;6.97;2.10;;;16.10;51.60;;;;;;5042286;28;20535;-71
2023/04/14 09:52:40;;;;;;;4.67;2.10;;;16.40;51.60;;;;;;5052036;28;20459;-71
2023/04/14 09:55:11;;;;;;;3.57;1.70;;;16.60;49.60;;;;;;5051086;28;20468;-70
2023/04/14 09:57:40;;;;;;;4.73;2.20;;;16.70;48.10;;;;;;5050565;28;20452;-71
2023/04/14 10:00:20;;;;;;;5.77;2.10;;;16.80;48.30;;;;;;5040574;28;21044;-71
2023/04/14 10:02:54;;;;;;;3.73;1.97;;;17.00;48.80;;;;;;5013647;28;20492;-72
2023/04/14 10:05:22;;;;;;;3.50;2.10;;;17.20;48.00;;;;;;5031561;28;21058;-71
2023/04/14 10:07:49;;;;;;;4.93;1.90;;;17.30;47.50;;;;;;5030618;28;20492;-71
2023/04/14 10:10:17;;;;;;;4.53;1.90;;;17.40;47.50;;;;;;5032807;28;20543;-71
2023/04/14 10:12:45;;;;;;;4.50;2.20;;;17.40;46.30;;;;;;5030833;28;20438;-71
2023/04/14 10:15:14;;;;;;;3.40;2.10;;;17.40;45.60;;;;;;5035280;28;20523;-71
2023/04/14 10:17:41;;;;;;;3.27;1.47;;;17.30;45.10;;;;;;5033015;28;20481;-71
2023/04/14 10:20:09;;;;;;;4.53;1.73;;;17.30;45.50;;;;;;5038155;28;20448;-71
2023/04/14 10:22:36;;;;;;;3.70;1.90;;;17.40;44.30;;;;;;5046293;28;20476;-71
2023/04/14 10:25:05;;;;;;;3.20;1.80;;;17.60;44.80;;;;;;5051890;28;20863;-72
2023/04/14 10:27:35;;;;;;;4.33;1.63;;;17.70;45.10;;;;;;5050938;28;20934;-72
2023/04/14 10:30:02;;;;;;;3.00;1.77;;;17.70;42.50;;;;;;5054403;28;20481;-71
2023/04/14 10:32:33;;;;;;;4.90;1.60;;;17.70;44.50;;;;;;5055646;28;20533;-71
2023/04/14 10:35:05;;;;;;;3.10;1.60;;;17.80;43.50;;;;;;5031933;28;20457;-71
2023/04/14 10:37:33;;;;;;;2.93;1.50;;;17.90;44.50;;;;;;5043264;28;20448;-71
2023/04/14 10:40:05;;;;;;;4.27;1.87;;;18.10;43.70;;;;;;5043147;28;20540;-72
2023/04/14 10:42:53;;;;;;;3.63;1.70;;;18.30;42.90;;;;;;5030930;28;20850;-72
2023/04/14 10:45:20;;;;;;;2.83;1.50;;;18.40;41.00;;;;;;5029538;28;20460;-72
2023/04/14 10:47:48;;;;;;;3.27;1.70;;;18.40;42.40;;;;;;5049355;28;20480;-71
2023/04/14 10:50:17;;;;;;;3.37;1.50;;;18.50;43.30;;;;;;5035287;28;20453;-71
2023/04/14 10:52:50;;;;;;;2.67;1.50;;;18.60;41.40;;;;;;5048487;28;20451;-71
2023/04/14 10:55:20;;;;;;;2.50;1.70;;;18.60;40.30;;;;;;5049558;28;20543;-71
2023/04/14 10:57:47;;;;;;;4.13;1.73;;;18.60;39.90;;;;;;5047932;28;20444;-71
2023/04/14 11:00:27;;;;;;;4.87;1.60;;;18.60;40.20;;;;;;5034185;28;20313;-70
2023/04/14 11:02:58;;;;;;;4.90;1.70;;;18.60;40.80;;;;;;5045501;28;20490;-72
2023/04/14 11:05:25;;;;;;;3.83;2.07;;;18.70;41.50;;;;;;5032752;28;20544;-71
2023/04/14 11:07:57;;;;;;;3.47;1.60;;;18.90;40.90;;;;;;5030015;28;20453;-71
2023/04/14 11:10:27;;;;;;;4.97;1.70;;;19.00;40.60;;;;;;5047856;28;20232;-71
2023/04/14 11:13:00;;;;;;;2.87;1.43;;;19.20;40.40;;;;;;5049557;28;20448;-71
2023/04/14 11:15:44;;;;;;;2.90;1.60;;;19.20;39.20;;;;;;5046595;28;20210;-71
2023/04/14 11:18:13;;;;;;;5.10;1.73;;;19.30;39.90;;;;;;5039537;28;20248;-72
2023/04/14 11:20:41;;;;;;;2.90;1.83;;;19.40;40.00;;;;;;5034636;28;20237;-71
2023/04/14 11:23:09;;;;;;;4.57;1.83;;;19.50;39.50;;;;;;5039464;28;21017;-71
2023/04/14 11:25:35;;;;;;;4.37;1.70;;;19.50;38.30;;;;;;5050004;28;20213;-71
2023/04/14 11:28:03;;;;;;;2.90;1.70;;;19.40;39.30;;;;;;5049436;28;20198;-71
2023/04/14 11:30:30;;;;;;;4.33;1.90;;;19.50;39.50;;;;;;5035817;28;20207;-71
2023/04/14 11:32:58;;;;;;;2.93;1.50;;;19.60;39.30;;;;;;5049689;28;20277;-71
2023/04/14 11:35:27;;;;;;;2.97;2.00;;;19.60;38.00;;;;;;5054204;28;20209;-71
2023/04/14 11:37:54;;;;;;;3.83;2.77;;;19.40;37.60;;;;;;5037933;28;20225;-72
2023/04/14 11:40:23;;;;;;;2.57;1.80;;;19.30;36.50;;;;;;5046289;28;20271;-71
2023/04/14 11:42:52;;;;;;;2.83;1.80;;;19.00;36.30;;;;;;5035784;28;20233;-71
2023/04/14 11:45:19;;;;;;;2.60;1.60;;;18.80;36.70;;;;;;5046265;28;20683;-71
2023/04/14 11:47:55;;;;;;;2.87;1.47;;;18.90;38.30;;;;;;5051266;28;20228;-71
2023/04/14 11:50:24;;;;;;;3.50;1.60;;;19.10;37.00;;;;;;5051824;28;20201;-72
2023/04/14 11:52:51;;;;;;;3.03;1.80;;;19.30;38.40;;;;;;5041843;28;20198;-72
2023/04/14 11:55:18;;;;;;;2.30;1.50;;;19.60;39.80;;;;;;5047937;28;20275;-71
2023/04/14 11:57:45;;;;;;;3.30;1.77;;;19.80;36.40;;;;;;5050805;28;20205;-71
2023/04/14 12:00:13;;;;;;;4.03;2.03;;;19.70;38.20;;;;;;5040126;28;20201;-71
2023/04/14 12:02:44;;;;;;;3.00;1.90;;;20.00;38.30;;;;;;5044943;28;22208;-71
2023/04/14 12:05:12;;;;;;;2.23;1.47;;;20.10;36.80;;;;;;5050765;28;20213;-71
2023/04/14 12:07:43;;;;;;;4.13;1.80;;;20.20;36.80;;;;;;5051500;28;20217;-71
2023/04/14 12:10:11;;;;;;;5.30;1.60;;;20.20;36.70;;;;;;5035178;28;20305;-71
2023/04/14 12:12:38;;;;;;;2.90;1.77;;;20.50;37.70;;;;;;5032040;28;20217;-72
2023/04/14 12:15:06;;;;;;;3.07;1.60;;;20.70;36.60;;;;;;5046901;28;20202;-72
2023/04/14 12:17:33;;;;;;;2.20;1.43;;;20.60;36.50;;;;;;5048489;28;20198;-72
2023/04/14 12:20:00;;;;;;;3.03;1.60;;;20.70;36.20;;;;;;5032936;28;20313;-72
2023/04/14 12:22:30;;;;;;;4.27;2.03;;;20.90;36.80;;;;;;5044364;28;20228;-71
2023/04/14 12:25:11;;;;;;;3.00;1.63;;;20.90;35.60;;;;;;5051939;28;20237;-71
2023/04/14 12:27:38;;;;;;;2.67;1.60;;;21.00;35.00;;;;;;5048424;28;20519;-71
2023/04/14 12:30:06;;;;;;;3.60;1.63;;;21.10;35.60;;;;;;5039418;28;20205;-71
2023/04/14 12:32:39;;;;;;;3.23;1.60;;;21.20;35.70;;;;;;5051116;28;20297;-71
2023/04/14 12:35:06;;;;;;;3.20;1.47;;;21.20;34.00;;;;;;5033934;28;20268;-71
2023/04/14 12:37:34;;;;;;;2.30;1.50;;;21.20;33.70;;;;;;5052205;28;20226;-72
2023/04/14 12:40:05;;;;;;;3.03;1.90;;;21.10;34.10;;;;;;5051880;28;20213;-72
2023/04/14 12:42:45;;;;;;;2.70;1.57;;;21.00;33.50;;;;;;5035089;28;20209;-71
2023/04/14 12:45:11;;;;;;;2.80;2.03;;;20.80;33.70;;;;;;4994358;28;1099794;-72
2023/04/14 12:47:38;;;;;;;2.77;1.70;;;21.00;35.70;;;;;;5052986;28;20233;-72
2023/04/14 12:50:24;;;;;;;2.60;1.80;;;21.30;34.90;;;;;;5042767;28;20272;-72
2023/04/14 12:52:52;;;;;;;3.10;1.40;;;21.40;34.20;;;;;;5034072;28;20206;-71
2023/04/14 12:55:21;;;;;;;1.90;1.37;;;21.60;33.30;;;;;;5037114;28;20617;-71
2023/04/14 12:57:52;;;;;;;2.53;1.73;;;21.60;33.00;;;;;;5032641;28;20268;-71